Main page
METAR-TAF:

METAR-TAF

Airports :

Multan International Airport

Multan, Pakistan

latitude: 30-12-12N, longitude: 71-25-09E, elevation: 122 m

Current weather observation

The report was made 23 minutes ago, at 05:30 UTC
Wind 8 kt from the Southwest
Temperature 34°C
Humidity 60%
Pressure 1002 hPa
Visibility: 5000 m
Few clouds at a height of 20000 ft
smoke

METAR: OPMT 250530Z 23008KT 5000 FU FEW200 34/25 Q1002 NOSIG

Time: 10:53 (05:53 UTC)

Forecast

The report was made 13 hours and 53 minutes ago, at 16:00 UTC
Forecast valid from 24 at 18 UTC to 25 at 12 UTC
Wind 10 kt from the Southwest
Visibility: 4000 m
Few clouds at a height of 12000 ft
smoke

TAF: OPMT 241600Z 2418/2512 23010KT 4000 FU FEW120 TN29/2501Z TX39/2510Z

Weather observations and forecasts of more than 4000 airports (METAR and TAF reports).

The available stations are represented by yellow and red dots on the map.

Hover mouse over dot to see the name of the station.

Then click to see weather observations and forecasts.

To change the map : click on the green buttons with a black cross to zoom in, on the green button with a dash to zoom out, or on the green arrows for adjacent maps.


METAR-TAF: